Time;durP1;ratioP1;P1;durP2;ratioP2;P2;SDS_P1;SDS_P2;PMS_P1;PMS_P2;Temp;Humidity;BMP_temperature;BMP_pressure;BME280_temperature;BME280_humidity;BME280_pressure;Samples;Min_cycle;Max_cycle;Signal;HPM_P1;HPM_P2
2022/09/20 01:57:59;;;;;;;5.65;3.08;;;;;;;;;;6022809;23;20204;-88
2022/09/20 02:01:17;;;;;;;5.57;2.83;;;;;;;;;;6006899;23;20167;-88
2022/09/20 02:04:49;;;;;;;5.38;3.20;;;;;;;;;;6004559;23;20185;-87
2022/09/20 02:08:12;;;;;;;6.00;2.92;;;;;;;;;;5994833;23;20313;-90
2022/09/20 02:11:19;;;;;;;4.88;2.72;;;;;;;;;;6007029;23;20261;-87
2022/09/20 02:14:32;;;;;;;5.03;2.85;;;;;;;;;;6004583;23;20179;-88
2022/09/20 02:17:45;;;;;;;5.63;3.00;;;;;;;;;;6007389;23;20240;-88
2022/09/20 02:20:55;;;;;;;8.20;3.22;;;;;;;;;;6007147;23;20238;-90
2022/09/20 02:24:04;;;;;;;6.70;3.20;;;;;;;;;;6023912;23;20172;-88
2022/09/20 02:27:14;;;;;;;6.90;3.13;;;;;;;;;;6007669;23;20200;-90
2022/09/20 02:30:26;;;;;;;6.70;3.08;;;;;;;;;;6006328;23;20172;-90
2022/09/20 02:33:53;;;;;;;7.10;2.80;;;;;;;;;;6006408;23;20246;-89
2022/09/20 02:37:06;;;;;;;9.18;2.92;;;;;;;;;;6007358;23;20231;-89
2022/09/20 02:40:21;;;;;;;9.18;3.35;;;;;;;;;;6023480;23;20181;-89
2022/09/20 02:43:28;;;;;;;4.90;2.80;;;;;;;;;;6005509;23;20152;-89
2022/09/20 02:46:37;;;;;;;4.60;2.50;;;;;;;;;;6006437;23;20445;-90
2022/09/20 02:49:50;;;;;;;8.82;3.17;;;;;;;;;;6005550;23;20180;-89
2022/09/20 02:53:01;;;;;;;5.57;2.60;;;;;;;;;;6006899;23;20172;-89
2022/09/20 02:56:09;;;;;;;4.05;2.53;;;;;;;;;;6005485;23;20312;-90
2022/09/20 02:59:20;;;;;;;7.47;2.80;;;;;;;;;;6007451;23;20160;-90
2022/09/20 03:02:30;;;;;;;7.57;2.42;;;;;;;;;;6006474;23;20187;-88
2022/09/20 03:05:43;;;;;;;7.28;2.55;;;;;;;;;;6023496;23;20176;-89
2022/09/20 03:08:51;;;;;;;4.70;2.35;;;;;;;;;;6005866;23;20277;-90
2022/09/20 03:12:01;;;;;;;6.25;2.35;;;;;;;;;;6021230;23;20172;-91
2022/09/20 03:15:11;;;;;;;6.60;2.65;;;;;;;;;;6004595;23;20168;-89
2022/09/20 03:18:20;;;;;;;7.53;2.42;;;;;;;;;;6004457;23;20710;-90
2022/09/20 03:21:29;;;;;;;5.13;2.40;;;;;;;;;;6004358;23;20181;-89
2022/09/20 03:24:40;;;;;;;3.70;2.35;;;;;;;;;;6004229;23;20554;-89
2022/09/20 03:27:57;;;;;;;4.43;2.17;;;;;;;;;;6003246;23;20258;-89
2022/09/20 03:31:06;;;;;;;8.23;2.47;;;;;;;;;;6007004;23;20176;-90
2022/09/20 03:34:17;;;;;;;6.95;2.45;;;;;;;;;;6003971;23;20171;-88
2022/09/20 03:37:36;;;;;;;6.45;2.63;;;;;;;;;;6005824;23;20191;-89
2022/09/20 03:40:57;;;;;;;7.70;2.33;;;;;;;;;;6003123;23;20235;-89
2022/09/20 03:44:09;;;;;;;7.82;2.63;;;;;;;;;;6004565;23;20500;-88
2022/09/20 03:47:22;;;;;;;7.75;2.60;;;;;;;;;;6003312;23;20175;-90
2022/09/20 03:50:36;;;;;;;8.88;2.67;;;;;;;;;;6003664;23;20519;-90
2022/09/20 03:53:52;;;;;;;7.05;2.92;;;;;;;;;;6003368;23;20180;-90
2022/09/20 03:57:11;;;;;;;9.50;3.10;;;;;;;;;;6004985;23;20191;-88
2022/09/20 04:00:25;;;;;;;7.00;2.90;;;;;;;;;;6004629;23;20176;-88
2022/09/20 04:03:41;;;;;;;10.85;3.70;;;;;;;;;;6003910;23;20176;-90
2022/09/20 04:06:58;;;;;;;8.93;3.38;;;;;;;;;;6003706;23;20176;-90
2022/09/20 04:10:08;;;;;;;18.85;6.78;;;;;;;;;;6005108;23;20209;-90
2022/09/20 04:13:26;;;;;;;10.63;3.70;;;;;;;;;;6002453;23;20175;-86
2022/09/20 04:16:35;;;;;;;7.80;2.97;;;;;;;;;;6020692;23;20160;-89
2022/09/20 04:19:44;;;;;;;6.70;3.00;;;;;;;;;;6002472;23;20176;-89
2022/09/20 04:22:52;;;;;;;6.28;2.95;;;;;;;;;;6004835;23;20209;-89
2022/09/20 04:25:58;;;;;;;9.43;3.38;;;;;;;;;;6003343;23;20196;-90
2022/09/20 04:29:13;;;;;;;7.97;2.78;;;;;;;;;;6002017;23;20536;-89
2022/09/20 04:32:20;;;;;;;8.50;3.10;;;;;;;;;;6003443;23;20171;-89
2022/09/20 04:39:00;;;;;;;11.10;3.40;;;;;;;;;;6019281;23;20171;-90
2022/09/20 04:42:26;;;;;;;7.97;3.25;;;;;;;;;;6002938;23;20881;-90
2022/09/20 04:45:50;;;;;;;11.85;3.10;;;;;;;;;;6004049;23;20176;-88
2022/09/20 04:49:33;;;;;;;4.45;2.40;;;;;;;;;;5979695;23;20195;-89
2022/09/20 04:52:53;;;;;;;8.25;3.28;;;;;;;;;;6020475;23;20172;-88
2022/09/20 04:56:01;;;;;;;7.82;3.60;;;;;;;;;;6003406;23;20260;-88
2022/09/20 04:59:07;;;;;;;13.40;3.53;;;;;;;;;;6004795;23;20624;-89
2022/09/20 05:02:27;;;;;;;7.57;3.60;;;;;;;;;;6004615;23;20171;-86
2022/09/20 05:05:46;;;;;;;11.50;3.97;;;;;;;;;;6006044;23;20262;-90
2022/09/20 05:09:01;;;;;;;9.57;2.85;;;;;;;;;;6005680;23;20248;-88
2022/09/20 05:12:18;;;;;;;7.45;2.60;;;;;;;;;;6021018;23;20172;-89
2022/09/20 05:15:29;;;;;;;9.55;3.65;;;;;;;;;;6022071;23;20176;-89
2022/09/20 05:18:51;;;;;;;7.85;2.60;;;;;;;;;;6007802;23;20229;-88
2022/09/20 05:22:17;;;;;;;5.78;2.67;;;;;;;;;;6006120;23;20227;-87
2022/09/20 05:25:37;;;;;;;7.68;2.75;;;;;;;;;;6022378;23;20196;-89
2022/09/20 05:28:53;;;;;;;12.18;3.03;;;;;;;;;;6021499;23;20304;-90
2022/09/20 05:32:03;;;;;;;7.32;3.22;;;;;;;;;;6008353;23;20261;-87
2022/09/20 05:35:15;;;;;;;7.95;3.17;;;;;;;;;;6026583;23;20611;-88
2022/09/20 05:38:24;;;;;;;9.68;3.33;;;;;;;;;;6027771;23;20175;-89
2022/09/20 05:41:32;;;;;;;7.53;3.22;;;;;;;;;;6010438;23;20171;-91
2022/09/20 05:44:57;;;;;;;9.30;3.45;;;;;;;;;;6025138;23;20167;-89
2022/09/20 05:48:30;;;;;;;7.72;3.63;;;;;;;;;;6009373;23;20199;-88
2022/09/20 05:52:03;;;;;;;6.18;2.92;;;;;;;;;;6009994;23;20219;-89
2022/09/20 05:55:15;;;;;;;8.98;2.88;;;;;;;;;;6008065;23;20262;-89
2022/09/20 05:58:28;;;;;;;9.02;3.10;;;;;;;;;;6009803;23;20168;-88
2022/09/20 06:01:39;;;;;;;6.30;2.92;;;;;;;;;;6008429;23;20172;-90
2022/09/20 06:04:49;;;;;;;8.73;3.30;;;;;;;;;;6010190;23;20164;-88
2022/09/20 06:08:16;;;;;;;8.90;3.03;;;;;;;;;;6015978;23;20228;-90
2022/09/20 06:11:39;;;;;;;7.65;3.13;;;;;;;;;;6026589;23;20168;-91
2022/09/20 06:14:49;;;;;;;5.60;3.05;;;;;;;;;;6009595;23;20261;-89
2022/09/20 06:18:00;;;;;;;9.50;3.20;;;;;;;;;;6009092;23;20188;-90
2022/09/20 06:21:10;;;;;;;10.77;3.05;;;;;;;;;;6008506;23;20172;-90
2022/09/20 06:24:21;;;;;;;9.40;3.60;;;;;;;;;;6009204;23;20292;-88
2022/09/20 06:27:28;;;;;;;5.75;2.67;;;;;;;;;;6007194;23;20266;-89
2022/09/20 06:30:35;;;;;;;5.47;2.67;;;;;;;;;;6008532;23;20152;-88
2022/09/20 06:33:55;;;;;;;9.82;3.50;;;;;;;;;;6009154;23;20168;-89
2022/09/20 06:43:58;;;;;;;7.95;2.30;;;;;;;;;;6024714;23;20182;-90
2022/09/20 15:18:13;;;;;;;1.90;0.70;;;;;;;;;;6091940;23;20202;-90
2022/09/20 15:21:19;;;;;;;1.42;0.70;;;;;;;;;;6108101;23;20174;-89
2022/09/20 15:24:23;;;;;;;3.15;0.75;;;;;;;;;;6106019;23;20189;-90
2022/09/20 15:27:28;;;;;;;1.63;0.65;;;;;;;;;;6106422;23;20165;-91
2022/09/20 15:30:33;;;;;;;5.65;1.55;;;;;;;;;;6109094;23;20202;-88
2022/09/20 15:33:40;;;;;;;1.58;0.70;;;;;;;;;;6109389;23;20242;-91
2022/09/20 15:36:47;;;;;;;5.13;1.00;;;;;;;;;;6108375;23;20510;-89
2022/09/20 15:39:52;;;;;;;2.72;0.80;;;;;;;;;;6108039;23;20669;-89
2022/09/20 15:42:59;;;;;;;2.85;0.90;;;;;;;;;;6109581;23;20189;-91
2022/09/20 15:46:17;;;;;;;2.20;0.80;;;;;;;;;;6108787;23;20261;-89
2022/09/20 15:49:29;;;;;;;2.92;0.90;;;;;;;;;;6110073;23;20182;-87
2022/09/20 15:52:35;;;;;;;5.57;0.82;;;;;;;;;;6108312;23;20177;-90
2022/09/20 15:55:41;;;;;;;3.20;1.00;;;;;;;;;;6106666;23;20207;-89
2022/09/20 15:58:47;;;;;;;2.85;0.77;;;;;;;;;;6106238;23;20693;-90
2022/09/20 16:01:52;;;;;;;2.75;1.00;;;;;;;;;;6106852;23;20202;-90
2022/09/20 16:05:01;;;;;;;4.05;1.00;;;;;;;;;;6107736;23;20235;-89
2022/09/20 16:08:06;;;;;;;3.38;1.08;;;;;;;;;;6107371;23;20170;-92
2022/09/20 16:11:13;;;;;;;5.80;1.48;;;;;;;;;;6106030;23;20174;-89
2022/09/20 16:14:19;;;;;;;1.83;1.10;;;;;;;;;;6108787;23;20222;-92
2022/09/20 16:19:16;;;;;;;3.05;1.17;;;;;;;;;;6106589;23;20197;-89
2022/09/20 16:20:49;;;;;;;3.80;1.00;;;;;;;;;;6108699;23;20267;-90
2022/09/20 16:23:55;;;;;;;2.55;1.10;;;;;;;;;;6108366;23;20607;-89
2022/09/20 16:27:01;;;;;;;3.30;1.20;;;;;;;;;;6108320;23;20165;-91
2022/09/20 16:30:07;;;;;;;3.05;1.20;;;;;;;;;;6106383;23;20241;-91
2022/09/20 16:33:14;;;;;;;3.75;1.20;;;;;;;;;;6106492;23;20249;-92
2022/09/20 16:36:23;;;;;;;3.60;1.13;;;;;;;;;;6105537;23;20170;-88
2022/09/20 16:39:28;;;;;;;4.25;1.13;;;;;;;;;;6106409;23;20267;-88
2022/09/20 16:42:33;;;;;;;5.55;1.10;;;;;;;;;;6108378;23;20177;-89
2022/09/20 16:45:38;;;;;;;3.88;1.20;;;;;;;;;;6107382;23;20233;-89
2022/09/20 16:49:09;;;;;;;3.80;1.35;;;;;;;;;;6105743;23;20175;-87
2022/09/20 16:52:16;;;;;;;6.68;1.17;;;;;;;;;;6105962;23;20170;-89
2022/09/20 16:55:22;;;;;;;2.40;1.40;;;;;;;;;;6106313;23;20178;-90
2022/09/20 16:58:28;;;;;;;1.83;1.05;;;;;;;;;;6105733;23;20591;-89
2022/09/20 17:01:33;;;;;;;5.25;1.40;;;;;;;;;;6105863;23;20173;-89
2022/09/20 17:04:42;;;;;;;1.85;1.10;;;;;;;;;;6108878;23;20255;-92
2022/09/20 17:07:49;;;;;;;4.07;1.27;;;;;;;;;;6105115;23;20173;-88
2022/09/20 17:10:58;;;;;;;3.92;1.60;;;;;;;;;;6103917;23;20174;-90
2022/09/20 17:14:04;;;;;;;2.20;1.30;;;;;;;;;;6107780;23;20207;-90
2022/09/20 17:17:09;;;;;;;4.10;1.15;;;;;;;;;;6105129;23;20649;-89
2022/09/20 17:20:14;;;;;;;2.22;1.17;;;;;;;;;;6105640;23;20285;-88
2022/09/20 17:23:22;;;;;;;3.65;1.00;;;;;;;;;;6105366;23;20232;-89
2022/09/20 17:26:30;;;;;;;3.10;1.30;;;;;;;;;;6103708;23;20173;-92
2022/09/20 17:29:35;;;;;;;10.38;4.10;;;;;;;;;;6104729;23;20182;-89
2022/09/20 17:32:46;;;;;;;20.33;7.75;;;;;;;;;;6107327;23;20606;-87
2022/09/20 17:35:51;;;;;;;7.50;3.55;;;;;;;;;;6105210;23;20166;-91
2022/09/20 17:38:59;;;;;;;4.70;2.47;;;;;;;;;;6104913;23;20521;-90
2022/09/20 17:42:04;;;;;;;8.48;2.10;;;;;;;;;;6105917;23;20413;-89
2022/09/20 17:45:10;;;;;;;4.57;2.30;;;;;;;;;;6106641;23;20265;-88
2022/09/20 17:48:16;;;;;;;2.92;1.88;;;;;;;;;;6108792;23;20182;-88
2022/09/20 17:51:23;;;;;;;3.65;2.33;;;;;;;;;;6108140;23;20185;-88
2022/09/20 17:54:29;;;;;;;4.03;1.90;;;;;;;;;;6107159;23;20267;-89
2022/09/20 17:57:36;;;;;;;6.38;2.40;;;;;;;;;;6106563;23;20166;-91
2022/09/20 18:00:41;;;;;;;5.25;2.05;;;;;;;;;;6105398;23;20249;-89
2022/09/20 18:03:47;;;;;;;4.50;2.03;;;;;;;;;;6106491;23;20523;-89
2022/09/20 18:06:53;;;;;;;6.40;2.20;;;;;;;;;;6108621;23;20187;-90
2022/09/20 18:10:04;;;;;;;7.70;3.10;;;;;;;;;;6110287;23;20173;-86
2022/09/20 18:13:09;;;;;;;6.47;2.78;;;;;;;;;;6108750;23;20241;-89
2022/09/20 18:16:16;;;;;;;4.80;2.28;;;;;;;;;;6109803;23;20166;-88
2022/09/20 18:19:21;;;;;;;5.72;2.03;;;;;;;;;;6112318;23;20242;-87
2022/09/20 18:22:26;;;;;;;8.55;2.80;;;;;;;;;;6109197;23;20174;-89
2022/09/20 18:26:20;;;;;;;6.68;2.30;;;;;;;;;;6109328;23;20238;-88
2022/09/20 18:29:01;;;;;;;11.95;2.50;;;;;;;;;;6106962;23;20197;-90
2022/09/20 18:32:07;;;;;;;10.63;2.38;;;;;;;;;;6107350;23;20174;-91
2022/09/20 18:35:12;;;;;;;6.05;2.88;;;;;;;;;;6106568;23;20174;-87
2022/09/20 18:38:17;;;;;;;6.65;2.65;;;;;;;;;;6105040;23;20515;-90
2022/09/20 18:41:25;;;;;;;5.07;1.88;;;;;;;;;;6107557;23;20195;-90
2022/09/20 18:44:32;;;;;;;5.90;2.20;;;;;;;;;;6107251;23;20243;-89
2022/09/20 18:47:50;;;;;;;5.25;2.22;;;;;;;;;;6107567;23;20592;-88
2022/09/20 18:50:56;;;;;;;5.40;2.60;;;;;;;;;;6105521;23;20231;-90
2022/09/20 18:54:02;;;;;;;6.03;2.40;;;;;;;;;;6105533;23;20184;-89
2022/09/20 18:57:10;;;;;;;5.85;2.75;;;;;;;;;;6108096;23;20170;-91
2022/09/20 19:00:16;;;;;;;6.32;2.60;;;;;;;;;;6104578;23;20471;-89
2022/09/20 19:03:26;;;;;;;7.57;2.45;;;;;;;;;;6107246;23;20170;-91
2022/09/20 19:06:32;;;;;;;6.70;3.05;;;;;;;;;;6106219;23;20215;-91
2022/09/20 19:09:41;;;;;;;8.10;3.53;;;;;;;;;;6104056;23;20263;-90
2022/09/20 19:12:50;;;;;;;9.13;4.32;;;;;;;;;;6106112;23;20585;-92
2022/09/20 19:16:10;;;;;;;5.70;3.13;;;;;;;;;;6105430;23;20218;-90
2022/09/20 19:19:23;;;;;;;11.30;4.00;;;;;;;;;;6105958;23;20174;-90
2022/09/20 19:22:33;;;;;;;14.63;7.10;;;;;;;;;;6106122;23;20718;-89
2022/09/20 19:25:42;;;;;;;5.00;3.08;;;;;;;;;;6106644;23;20232;-89
2022/09/20 19:28:49;;;;;;;6.47;2.55;;;;;;;;;;6106395;23;20249;-91
2022/09/20 19:31:55;;;;;;;9.88;3.67;;;;;;;;;;6109452;23;20166;-88
2022/09/20 19:35:02;;;;;;;8.30;3.33;;;;;;;;;;6106728;23;20282;-90
2022/09/20 19:38:14;;;;;;;5.72;3.35;;;;;;;;;;6106570;23;20173;-91
2022/09/20 19:41:28;;;;;;;5.93;3.17;;;;;;;;;;6106158;23;20245;-91
2022/09/20 19:44:39;;;;;;;5.55;2.97;;;;;;;;;;6104966;23;20664;-90
2022/09/20 19:47:49;;;;;;;24.10;9.25;;;;;;;;;;6106006;23;20245;-88
2022/09/20 19:50:54;;;;;;;5.20;3.28;;;;;;;;;;6107241;23;20245;-87
2022/09/20 19:54:00;;;;;;;7.35;4.18;;;;;;;;;;6106262;23;20182;-89
2022/09/20 19:57:07;;;;;;;7.20;3.47;;;;;;;;;;6107684;23;20186;-90
2022/09/20 20:00:15;;;;;;;6.55;3.50;;;;;;;;;;6108132;23;20322;-89
2022/09/20 20:03:24;;;;;;;7.00;3.05;;;;;;;;;;6110375;23;20166;-91
2022/09/20 20:06:33;;;;;;;6.20;3.75;;;;;;;;;;6108892;23;20290;-91
2022/09/20 20:09:42;;;;;;;7.82;3.15;;;;;;;;;;6107820;23;20185;-89
2022/09/20 20:12:50;;;;;;;7.93;3.47;;;;;;;;;;6106997;23;20162;-90
2022/09/20 20:16:00;;;;;;;24.23;9.63;;;;;;;;;;6105056;23;20236;-90
2022/09/20 20:19:12;;;;;;;10.57;5.07;;;;;;;;;;6107616;23;20168;-90
2022/09/20 20:22:21;;;;;;;11.40;4.53;;;;;;;;;;6106837;23;20202;-88
2022/09/20 20:25:33;;;;;;;6.05;3.65;;;;;;;;;;6104592;23;20646;-91
2022/09/20 20:28:39;;;;;;;8.10;3.05;;;;;;;;;;6105901;23;20294;-88
2022/09/20 20:31:45;;;;;;;8.45;2.92;;;;;;;;;;6102769;23;20290;-88
2022/09/20 20:34:51;;;;;;;8.00;3.20;;;;;;;;;;6105465;23;20162;-91
2022/09/20 20:37:56;;;;;;;8.45;3.58;;;;;;;;;;6105009;23;20170;-89
2022/09/20 20:41:03;;;;;;;7.53;2.40;;;;;;;;;;6104584;23;20298;-89
2022/09/20 20:44:08;;;;;;;10.82;2.83;;;;;;;;;;6106389;23;20242;-92
2022/09/20 20:47:14;;;;;;;6.03;2.42;;;;;;;;;;6106006;23;20630;-91
2022/09/20 20:50:20;;;;;;;4.30;2.25;;;;;;;;;;6104769;23;20161;-90
2022/09/20 20:53:25;;;;;;;8.75;2.60;;;;;;;;;;6104581;23;20226;-87
2022/09/20 20:56:30;;;;;;;5.13;2.50;;;;;;;;;;6105264;23;20742;-90
2022/09/20 20:59:35;;;;;;;6.65;2.85;;;;;;;;;;6103855;23;20210;-88
2022/09/20 21:02:41;;;;;;;6.90;2.50;;;;;;;;;;6105627;23;20166;-90
2022/09/20 21:05:53;;;;;;;6.40;3.10;;;;;;;;;;6103031;23;20165;-91
2022/09/20 21:08:59;;;;;;;7.20;3.13;;;;;;;;;;6105996;23;20170;-89
2022/09/20 21:12:04;;;;;;;7.38;2.70;;;;;;;;;;6104874;23;20169;-88
2022/09/20 21:15:10;;;;;;;7.68;2.75;;;;;;;;;;6104797;23;20213;-88
2022/09/20 21:18:17;;;;;;;10.95;2.90;;;;;;;;;;6103897;23;20193;-87
2022/09/20 21:21:22;;;;;;;6.20;3.10;;;;;;;;;;6103196;23;20287;-88
2022/09/20 21:24:27;;;;;;;12.13;3.72;;;;;;;;;;6105445;23;20186;-90
2022/09/20 21:27:35;;;;;;;10.70;3.72;;;;;;;;;;6107013;23;20169;-88
2022/09/20 21:30:40;;;;;;;9.40;3.50;;;;;;;;;;6108664;23;20230;-89
2022/09/20 21:33:46;;;;;;;14.52;3.95;;;;;;;;;;6105500;23;20161;-92
2022/09/20 21:36:51;;;;;;;7.97;3.63;;;;;;;;;;6104355;23;20311;-91
2022/09/20 21:39:56;;;;;;;10.77;3.97;;;;;;;;;;6102515;23;20282;-90
2022/09/20 21:43:01;;;;;;;7.50;3.97;;;;;;;;;;6101655;23;20913;-89
2022/09/20 21:46:06;;;;;;;24.10;5.47;;;;;;;;;;6104080;23;20166;-90
2022/09/20 21:49:13;;;;;;;11.88;5.32;;;;;;;;;;6104157;23;20170;-90
2022/09/20 21:52:17;;;;;;;23.00;5.40;;;;;;;;;;6105043;23;20287;-90
2022/09/20 21:55:22;;;;;;;11.25;5.53;;;;;;;;;;6104102;23;20182;-89
2022/09/20 21:58:28;;;;;;;24.73;5.05;;;;;;;;;;6105373;23;20174;-90
2022/09/20 22:01:35;;;;;;;19.98;4.88;;;;;;;;;;6103622;23;20202;-90
2022/09/20 22:04:41;;;;;;;24.65;5.10;;;;;;;;;;6102546;23;20174;-89
2022/09/20 22:07:46;;;;;;;18.45;4.43;;;;;;;;;;6104255;23;20162;-90
2022/09/20 22:10:58;;;;;;;51.53;5.38;;;;;;;;;;6106111;23;20182;-90
2022/09/20 22:14:03;;;;;;;99.50;7.10;;;;;;;;;;6104876;23;20169;-91
2022/09/20 22:17:08;;;;;;;24.45;5.22;;;;;;;;;;6106916;23;20189;-89
2022/09/20 22:20:15;;;;;;;21.17;5.80;;;;;;;;;;6105238;23;20198;-89
2022/09/20 22:23:20;;;;;;;22.63;4.85;;;;;;;;;;6106247;23;20178;-89
2022/09/20 22:26:26;;;;;;;35.07;5.80;;;;;;;;;;6105973;23;20201;-91
2022/09/20 22:29:31;;;;;;;13.15;4.55;;;;;;;;;;6105220;23;20193;-87
2022/09/20 22:32:36;;;;;;;26.60;4.95;;;;;;;;;;6107378;23;20186;-89
2022/09/20 22:35:45;;;;;;;18.25;5.07;;;;;;;;;;6108755;23;20267;-89
2022/09/20 22:38:51;;;;;;;19.63;3.87;;;;;;;;;;6107436;23;20260;-90
2022/09/20 22:41:56;;;;;;;38.70;4.97;;;;;;;;;;6107598;23;20193;-90
2022/09/20 22:45:01;;;;;;;14.35;4.38;;;;;;;;;;6106860;23;20173;-87
2022/09/20 22:48:06;;;;;;;12.50;4.35;;;;;;;;;;6106488;23;20170;-87
2022/09/20 22:51:14;;;;;;;11.07;4.40;;;;;;;;;;6107141;23;20169;-88
2022/09/20 22:54:19;;;;;;;11.20;4.17;;;;;;;;;;6104172;23;20658;-90
2022/09/20 22:57:24;;;;;;;9.07;3.70;;;;;;;;;;6106642;23;20169;-90
2022/09/20 23:00:29;;;;;;;14.40;4.03;;;;;;;;;;6102069;23;20601;-87
2022/09/20 23:03:34;;;;;;;12.25;4.30;;;;;;;;;;6103328;23;20182;-89
2022/09/20 23:06:41;;;;;;;12.70;4.18;;;;;;;;;;6103955;23;20228;-89
2022/09/20 23:09:48;;;;;;;10.00;4.45;;;;;;;;;;6105337;23;20165;-90
2022/09/20 23:12:53;;;;;;;7.28;3.90;;;;;;;;;;6106431;23;20714;-90
2022/09/20 23:15:58;;;;;;;15.87;4.10;;;;;;;;;;6104411;23;20343;-90
2022/09/20 23:19:03;;;;;;;19.37;3.80;;;;;;;;;;6105666;23;20186;-87
2022/09/20 23:22:09;;;;;;;29.23;4.15;;;;;;;;;;6105228;23;20278;-89
2022/09/20 23:25:14;;;;;;;8.10;3.57;;;;;;;;;;6104797;23;20177;-87
2022/09/20 23:28:20;;;;;;;9.20;3.40;;;;;;;;;;6105784;23;20169;-89
2022/09/20 23:31:25;;;;;;;10.87;3.57;;;;;;;;;;6105928;23;20162;-89
2022/09/20 23:34:30;;;;;;;9.43;4.03;;;;;;;;;;6105013;23;20766;-89
2022/09/20 23:37:36;;;;;;;10.80;4.60;;;;;;;;;;6105522;23;20186;-90
2022/09/20 23:40:42;;;;;;;11.73;4.23;;;;;;;;;;6105508;23;20200;-88
2022/09/20 23:43:47;;;;;;;8.47;3.53;;;;;;;;;;6105464;23;20504;-89
2022/09/20 23:46:52;;;;;;;19.33;4.03;;;;;;;;;;6107420;23;20181;-90
2022/09/20 23:49:56;;;;;;;23.77;4.47;;;;;;;;;;6105798;23;20193;-90
2022/09/20 23:53:03;;;;;;;19.60;3.97;;;;;;;;;;6103869;23;20190;-87
2022/09/20 23:56:08;;;;;;;10.13;3.80;;;;;;;;;;6105597;23;20177;-89
2022/09/20 23:59:14;;;;;;;31.83;4.80;;;;;;;;;;6105428;23;20194;-88
